Terminal Aerodrome Forecast
Issued by NWS North Platte, NE

Home | Current Version | Previous Version | Graphics & Text | Print | Product List | Glossary On
Versions: 1 2 3 4 5 6 7 8 9 10 11 12 13 14 15 16 17 18 19 20 21
000
FTUS43 KLBF 271100
TAFVTN
TAF
KVTN 271129Z 2712/2812 VRB04KT P6SM SCT120
     FM271400 19010KT P6SM SCT090 SCT150
     FM271800 17014G21KT P6SM BKN060 OVC090
      TEMPO 2720/2722 -TSRA BKN050CB
     FM280000 16014G22KT P6SM SCT070 BKN200=

USA.gov is the U.S. government's official web portal to all federal, state and local government web resources and services.